createdAt,value
2018-02-15T00:00:42.551Z,100749.53
2018-02-15T00:03:11.674Z,100752.11
2018-02-15T00:05:41.520Z,100746.72
2018-02-15T00:08:10.642Z,100743.38
2018-02-15T00:10:39.735Z,100742.84
2018-02-15T00:13:08.853Z,100736.41
2018-02-15T00:15:37.937Z,100749.64
2018-02-15T00:18:07.055Z,100743.16
2018-02-15T00:20:36.173Z,100735.31
2018-02-15T00:23:05.310Z,100735.80
2018-02-15T00:25:34.398Z,100736.53
2018-02-15T00:28:04.577Z,100734.00
2018-02-15T00:30:33.673Z,100728.70
2018-02-15T00:33:03.529Z,100737.00
2018-02-15T00:35:32.637Z,100733.52
2018-02-15T00:38:01.746Z,100736.00
2018-02-15T00:40:30.886Z,100742.05
2018-02-15T00:43:00.743Z,100745.75
2018-02-15T00:45:29.858Z,100746.81
2018-02-15T00:47:59.858Z,100753.73
2018-02-15T00:50:28.954Z,100752.79
2018-02-15T00:52:58.070Z,100749.03
2018-02-15T00:55:27.180Z,100748.52
2018-02-15T00:57:56.274Z,100744.24
2018-02-15T01:00:25.358Z,100753.77
2018-02-15T01:02:54.519Z,100761.84
2018-02-15T01:05:23.629Z,100770.57
2018-02-15T01:07:52.745Z,100774.32
2018-02-15T01:10:21.841Z,100771.96
2018-02-15T01:12:50.958Z,100766.80
2018-02-15T01:15:20.176Z,100752.01
2018-02-15T01:17:49.293Z,100750.61
2018-02-15T01:20:18.444Z,100751.48
2018-02-15T01:22:48.477Z,100752.30
2018-02-15T01:25:17.596Z,100751.71
2018-02-15T01:27:46.745Z,100748.58
2018-02-15T01:30:15.837Z,100745.66
2018-02-15T01:32:45.774Z,100746.92
2018-02-15T01:35:15.014Z,100735.45
2018-02-15T01:37:45.391Z,100726.78
2018-02-15T01:40:14.518Z,100721.40
2018-02-15T01:42:45.532Z,100710.41
2018-02-15T01:45:15.547Z,100701.91
2018-02-15T01:47:44.635Z,100695.02
2018-02-15T01:50:13.743Z,100694.72
2018-02-15T01:52:43.199Z,100685.01
2018-02-15T01:55:12.305Z,100692.36
2018-02-15T01:57:41.517Z,100691.91
2018-02-15T02:00:10.636Z,100693.41
2018-02-15T02:02:39.756Z,100684.91
2018-02-15T02:05:09.601Z,100680.06
2018-02-15T02:07:38.750Z,100677.22
2018-02-15T02:10:07.856Z,100665.77
2018-02-15T02:12:37.730Z,100661.27
2018-02-15T02:15:06.852Z,100668.66
2018-02-15T02:17:35.953Z,100653.84
2018-02-15T02:20:05.075Z,100661.66
2018-02-15T02:22:34.915Z,100663.42
2018-02-15T02:25:04.046Z,100650.67
2018-02-15T02:27:33.135Z,100656.36
2018-02-15T02:30:03.031Z,100655.34
2018-02-15T02:32:32.118Z,100651.94
2018-02-15T02:35:01.218Z,100655.88
2018-02-15T02:37:30.320Z,100652.22
2018-02-15T02:39:59.414Z,100656.36
2018-02-15T02:44:56.787Z,100642.38
2018-02-15T02:47:26.806Z,100646.02
2018-02-15T02:49:55.905Z,100645.69
2018-02-15T02:52:25.009Z,100641.35
2018-02-15T02:54:54.096Z,100655.38
2018-02-15T02:57:23.213Z,100647.88
2018-02-15T02:59:52.330Z,100643.28
2018-02-15T03:02:22.173Z,100646.16
2018-02-15T03:04:51.285Z,100640.69
2018-02-15T03:07:20.459Z,100633.95
2018-02-15T03:09:49.578Z,100630.05
2018-02-15T03:12:18.680Z,100624.41
2018-02-15T03:14:47.801Z,100629.20
2018-02-15T03:17:16.911Z,100627.42
2018-02-15T03:19:46.004Z,100620.27
2018-02-15T03:22:15.115Z,100613.73
2018-02-15T03:24:44.976Z,100613.67
2018-02-15T03:27:14.081Z,100604.91
2018-02-15T03:29:43.192Z,100599.44
2018-02-15T03:32:12.302Z,100606.20
2018-02-15T03:34:41.400Z,100597.48
2018-02-15T03:37:10.508Z,100596.88
2018-02-15T03:39:40.374Z,100595.70
2018-02-15T03:42:09.499Z,100597.70
2018-02-15T03:44:38.601Z,100596.95
2018-02-15T03:47:07.691Z,100594.09
2018-02-15T03:49:36.811Z,100599.16
2018-02-15T03:52:06.675Z,100590.94
2018-02-15T03:54:36.569Z,100579.45
2018-02-15T03:57:06.254Z,100577.88
2018-02-15T03:59:36.130Z,100572.50
2018-02-15T04:02:05.262Z,100580.97
2018-02-15T04:04:35.144Z,100590.00
2018-02-15T04:07:05.742Z,100591.42
2018-02-15T04:09:34.848Z,100588.91
2018-02-15T04:12:03.998Z,100594.89
2018-02-15T04:14:33.092Z,100596.23
2018-02-15T04:17:02.951Z,100600.06
2018-02-15T04:19:32.070Z,100603.86
2018-02-15T04:22:01.159Z,100605.77
2018-02-15T04:24:30.261Z,100604.60
2018-02-15T04:26:59.374Z,100601.45
2018-02-15T04:29:28.473Z,100613.53
2018-02-15T04:31:58.361Z,100614.70
2018-02-15T04:34:27.445Z,100616.16
2018-02-15T04:36:56.560Z,100611.34
2018-02-15T04:39:27.161Z,100619.45
2018-02-15T04:41:56.280Z,100625.08
2018-02-15T04:44:25.376Z,100625.08
2018-02-15T04:46:54.483Z,100625.54
2018-02-15T04:49:23.616Z,100636.49
2018-02-15T04:51:53.496Z,100624.80
2018-02-15T04:54:22.614Z,100633.30
2018-02-15T04:56:51.709Z,100628.65
2018-02-15T04:59:21.597Z,100630.50
2018-02-15T05:01:50.715Z,100630.86
2018-02-15T05:04:19.826Z,100630.74
2018-02-15T05:06:49.687Z,100621.27
2018-02-15T05:09:18.837Z,100623.50
2018-02-15T05:11:48.692Z,100620.88
2018-02-15T05:14:17.788Z,100615.84
2018-02-15T05:16:46.898Z,100615.45
2018-02-15T05:19:16.004Z,100614.21
2018-02-15T05:21:45.113Z,100620.33
2018-02-15T05:24:14.208Z,100620.72
2018-02-15T05:26:43.329Z,100614.67
2018-02-15T05:29:13.187Z,100610.75
2018-02-15T05:31:42.295Z,100612.91
2018-02-15T05:34:11.390Z,100619.99
2018-02-15T05:36:40.510Z,100616.50
2018-02-15T05:39:09.627Z,100624.50
2018-02-15T05:41:39.505Z,100615.51
2018-02-15T05:44:08.618Z,100621.49
2018-02-15T05:46:37.746Z,100625.39
2018-02-15T05:49:06.836Z,100621.95
2018-02-15T05:51:36.690Z,100629.11
2018-02-15T05:54:05.809Z,100619.86
2018-02-15T05:56:34.913Z,100612.07
2018-02-15T05:59:04.027Z,100610.63
2018-02-15T06:01:33.913Z,100600.05
2018-02-15T06:04:03.102Z,100595.75
2018-02-15T06:06:32.900Z,100594.80
2018-02-15T06:09:02.030Z,100611.42
2018-02-15T06:11:31.162Z,100610.89
2018-02-15T06:14:01.090Z,100619.43
2018-02-15T06:16:30.209Z,100612.38
2018-02-15T06:18:59.348Z,100622.61
2018-02-15T06:21:28.477Z,100619.14
2018-02-15T06:23:57.623Z,100617.69
2018-02-15T06:26:26.763Z,100627.86
2018-02-15T06:28:56.659Z,100626.98
2018-02-15T06:31:26.571Z,100636.09
2018-02-15T06:33:55.703Z,100637.87
2018-02-15T06:36:25.598Z,100636.59
2018-02-15T06:38:54.743Z,100638.33
2018-02-15T06:41:23.872Z,100643.07
2018-02-15T06:43:53.007Z,100641.51
2018-02-15T06:46:22.156Z,100638.63
2018-02-15T06:48:51.278Z,100646.36
2018-02-15T06:51:21.768Z,100647.59
2018-02-15T06:53:50.892Z,100650.78
2018-02-15T06:56:20.787Z,100644.86
2018-02-15T06:58:49.924Z,100646.59
2018-02-15T07:01:19.035Z,100651.83
2018-02-15T07:03:48.218Z,100656.71
2018-02-15T07:06:17.362Z,100657.89
2018-02-15T07:08:46.493Z,100656.97
2018-02-15T07:11:16.396Z,100668.60
2018-02-15T07:13:45.518Z,100668.23
2018-02-15T07:16:14.643Z,100679.20
2018-02-15T07:18:43.778Z,100678.66
2018-02-15T07:21:17.772Z,100678.59
2018-02-15T07:23:47.672Z,100674.87
2018-02-15T07:26:16.788Z,100672.94
2018-02-15T07:28:45.928Z,100673.34
2018-02-15T07:31:15.833Z,100661.05
2018-02-15T07:33:45.740Z,100663.01
2018-02-15T07:36:14.887Z,100666.47
2018-02-15T07:38:44.026Z,100672.03
2018-02-15T07:41:13.175Z,100674.81
2018-02-15T07:43:43.077Z,100666.83
2018-02-15T07:46:12.202Z,100666.80
2018-02-15T07:48:41.390Z,100660.33
2018-02-15T07:51:10.523Z,100663.98
2018-02-15T07:53:39.660Z,100660.72
2018-02-15T07:56:08.808Z,100668.36
2018-02-15T07:58:37.945Z,100660.45
2018-02-15T08:01:07.873Z,100651.34
2018-02-15T08:03:37.014Z,100650.00
2018-02-15T08:06:06.146Z,100646.30
2018-02-15T08:08:36.048Z,100653.27
2018-02-15T08:11:05.178Z,100641.70
2018-02-15T08:13:34.330Z,100641.98
2018-02-15T08:16:03.456Z,100644.44
2018-02-15T08:18:33.359Z,100632.25
2018-02-15T08:21:03.262Z,100640.61
2018-02-15T08:23:32.428Z,100653.69
2018-02-15T08:26:01.570Z,100648.27
2018-02-15T08:28:30.706Z,100649.93
2018-02-15T08:30:59.827Z,100644.60
2018-02-15T08:33:28.955Z,100646.04
2018-02-15T08:35:58.094Z,100630.24
2018-02-15T08:38:27.229Z,100619.14
2018-02-15T08:40:56.380Z,100611.00
2018-02-15T08:43:25.509Z,100617.59
2018-02-15T08:45:54.652Z,100620.47
2018-02-15T08:48:24.554Z,100617.53
2018-02-15T08:50:54.483Z,100618.47
2018-02-15T08:53:24.369Z,100621.19
2018-02-15T08:55:53.506Z,100615.44
2018-02-15T08:58:22.650Z,100615.73
2018-02-15T09:00:51.783Z,100608.06
2018-02-15T09:03:21.710Z,100607.50
2018-02-15T09:05:51.615Z,100608.41
2018-02-15T09:08:21.583Z,100606.19
2018-02-15T09:10:50.752Z,100618.98
2018-02-15T09:13:19.876Z,100615.77
2018-02-15T09:15:48.991Z,100623.16
2018-02-15T09:18:18.132Z,100637.84
2018-02-15T09:20:48.042Z,100631.46
2018-02-15T09:23:17.947Z,100633.09
2018-02-15T09:25:47.834Z,100627.51
2018-02-15T09:28:16.986Z,100629.14
2018-02-15T09:30:46.123Z,100627.27
2018-02-15T09:33:15.282Z,100620.15
2018-02-15T09:35:44.414Z,100613.59
2018-02-15T09:38:13.563Z,100614.08
2018-02-15T09:40:42.706Z,100614.47
2018-02-15T09:43:11.871Z,100608.84
2018-02-15T09:45:40.998Z,100621.10
2018-02-15T09:48:10.169Z,100623.76
2018-02-15T09:50:39.316Z,100631.20
2018-02-15T09:53:08.446Z,100639.12
2018-02-15T09:55:37.587Z,100633.94
2018-02-15T09:58:06.726Z,100635.69
2018-02-15T10:00:36.635Z,100629.94
2018-02-15T10:03:05.767Z,100631.78
2018-02-15T10:05:34.906Z,100630.30
2018-02-15T10:08:04.015Z,100634.88
2018-02-15T10:10:33.166Z,100638.66
2018-02-15T10:13:02.295Z,100639.83
2018-02-15T10:15:31.440Z,100631.39
2018-02-15T10:18:01.392Z,100638.94
2018-02-15T10:20:31.306Z,100631.71
2018-02-15T10:23:00.432Z,100631.00
2018-02-15T10:25:29.561Z,100630.36
2018-02-15T10:27:58.713Z,100622.59
2018-02-15T10:30:27.846Z,100631.67
2018-02-15T10:32:57.787Z,100616.13
2018-02-15T10:35:26.915Z,100619.78
2018-02-15T10:37:56.065Z,100619.34
2018-02-15T10:40:25.264Z,100623.45
2018-02-15T10:42:54.395Z,100620.12
2018-02-15T10:45:23.538Z,100614.67
2018-02-15T10:47:53.465Z,100619.77
2018-02-15T10:50:23.377Z,100612.03
2018-02-15T10:52:52.546Z,100617.95
2018-02-15T10:55:21.682Z,100621.67
2018-02-15T10:57:50.845Z,100619.90
2018-02-15T11:00:19.986Z,100622.09
2018-02-15T11:02:54.695Z,100614.25
2018-02-15T11:05:29.630Z,100611.22
2018-02-15T11:07:58.777Z,100618.70
2018-02-15T11:10:27.928Z,100618.27
2018-02-15T11:12:57.841Z,100628.56
2018-02-15T11:15:27.011Z,100624.42
2018-02-15T11:17:56.152Z,100627.44
2018-02-15T11:20:25.278Z,100640.67
2018-02-15T11:22:54.435Z,100639.89
2018-02-15T11:25:23.576Z,100641.25
2018-02-15T11:27:52.803Z,100644.86
2018-02-15T11:30:21.934Z,100643.19
2018-02-15T11:32:51.080Z,100635.66
2018-02-15T11:35:20.216Z,100638.24
2018-02-15T11:37:49.356Z,100632.52
2018-02-15T11:40:18.514Z,100624.91
2018-02-15T11:42:47.685Z,100630.20
2018-02-15T11:45:16.831Z,100636.98
2018-02-15T11:47:45.978Z,100639.69
2018-02-15T11:50:15.091Z,100640.64
2018-02-15T11:52:44.233Z,100638.02
2018-02-15T11:55:14.119Z,100632.42
2018-02-15T11:57:43.286Z,100622.04
2018-02-15T12:00:13.196Z,100625.95
2018-02-15T12:02:42.342Z,100624.42
2018-02-15T12:05:11.491Z,100628.22
2018-02-15T12:07:40.648Z,100627.14
2018-02-15T12:10:09.782Z,100630.28
2018-02-15T12:12:38.929Z,100627.52
2018-02-15T12:15:08.066Z,100627.42
2018-02-15T12:17:37.229Z,100635.48
2018-02-15T12:20:06.353Z,100638.67
2018-02-15T12:22:35.520Z,100637.98
2018-02-15T12:25:04.692Z,100637.78
2018-02-15T12:27:33.836Z,100635.38
2018-02-15T12:30:03.005Z,100633.98
2018-02-15T12:32:32.160Z,100629.53
2018-02-15T12:35:01.309Z,100628.38
2018-02-15T12:37:30.448Z,100623.73
2018-02-15T12:39:59.711Z,100623.89
2018-02-15T12:42:28.863Z,100618.04
2018-02-15T12:44:58.782Z,100622.49
2018-02-15T12:47:28.694Z,100630.13
2018-02-15T12:49:58.581Z,100626.21
2018-02-15T12:52:27.739Z,100622.53
2018-02-15T12:54:56.897Z,100619.20
2018-02-15T12:57:26.797Z,100616.45
2018-02-15T12:59:55.970Z,100623.37
2018-02-15T13:02:25.110Z,100626.44
2018-02-15T13:04:55.723Z,100629.23
2018-02-15T13:07:24.856Z,100628.70
2018-02-15T13:09:54.024Z,100631.64
2018-02-15T13:12:41.182Z,100634.73
2018-02-15T13:15:28.111Z,100636.68
2018-02-15T13:17:57.253Z,100636.48
2018-02-15T13:20:26.386Z,100631.41
2018-02-15T13:22:55.538Z,100629.44
2018-02-15T13:25:24.722Z,100630.02
2018-02-15T13:41:34.323Z,100627.88
2018-02-15T13:44:03.455Z,100628.03
2018-02-15T13:46:32.617Z,100633.69
2018-02-15T13:49:02.503Z,100631.95
2018-02-15T13:51:32.415Z,100639.19
2018-02-15T13:54:02.478Z,100637.22
2018-02-15T13:56:31.716Z,100639.70
2018-02-15T13:59:00.864Z,100647.30
2018-02-15T14:01:30.009Z,100648.89
2018-02-15T14:03:59.135Z,100658.34
2018-02-15T14:06:28.280Z,100666.83
2018-02-15T14:08:57.439Z,100671.55
2018-02-15T14:11:26.564Z,100671.52
2018-02-15T14:13:55.719Z,100679.23
2018-02-15T14:16:24.847Z,100682.30
2018-02-15T14:18:53.993Z,100678.23
2018-02-15T14:21:24.483Z,100680.32
2018-02-15T14:23:53.643Z,100686.72
2018-02-15T14:26:22.776Z,100688.23
2018-02-15T14:28:51.947Z,100684.73
2018-02-15T14:31:21.080Z,100685.86
2018-02-15T14:33:50.234Z,100690.12
2018-02-15T14:36:19.384Z,100690.63
2018-02-15T14:38:48.548Z,100694.48
2018-02-15T14:41:17.676Z,100694.31
2018-02-15T14:43:46.827Z,100689.23
2018-02-15T14:46:15.938Z,100689.00
2018-02-15T14:48:45.053Z,100690.47
2018-02-15T14:51:14.360Z,100688.73
2018-02-15T14:53:43.507Z,100685.05
2018-02-15T14:56:13.413Z,100679.69
2018-02-15T14:58:43.327Z,100678.77
2018-02-15T15:01:13.242Z,100673.26
2018-02-15T15:03:42.434Z,100678.65
2018-02-15T15:06:11.604Z,100673.50
2018-02-15T15:08:40.752Z,100677.22
2018-02-15T15:11:09.912Z,100677.48
2018-02-15T15:13:39.049Z,100675.86
2018-02-15T15:16:08.211Z,100681.72
2018-02-15T15:18:38.164Z,100677.92
2018-02-15T15:21:07.340Z,100687.64
2018-02-15T15:23:37.289Z,100686.72
2018-02-15T15:26:08.325Z,100690.63
2018-02-15T15:28:37.447Z,100686.45
2018-02-15T15:31:07.379Z,100687.92
2018-02-15T15:33:36.524Z,100685.94
2018-02-15T15:36:05.670Z,100689.90
2018-02-15T15:38:34.823Z,100689.89
2018-02-15T15:41:03.997Z,100697.00
2018-02-15T15:43:33.914Z,100698.70
2018-02-15T15:46:03.845Z,100696.25
2018-02-15T15:48:32.976Z,100688.96
2018-02-15T15:51:02.140Z,100693.03
2018-02-15T15:53:31.282Z,100689.74
2018-02-15T15:56:00.448Z,100694.28
2018-02-15T15:58:29.579Z,100696.84
2018-02-15T16:00:58.691Z,100696.88
2018-02-15T16:03:27.865Z,100701.34
2018-02-15T16:05:57.033Z,100698.16
2018-02-15T16:08:26.196Z,100697.42
2018-02-15T16:10:55.319Z,100707.77
2018-02-15T16:13:24.454Z,100702.66
2018-02-15T16:15:53.591Z,100706.92
2018-02-15T16:18:22.718Z,100715.45
2018-02-15T16:20:52.647Z,100720.56
2018-02-15T16:23:22.584Z,100717.23
2018-02-15T16:25:51.763Z,100716.92
2018-02-15T16:28:22.609Z,100708.81
2018-02-15T16:30:52.535Z,100709.64
2018-02-15T16:33:21.672Z,100717.73
2018-02-15T16:35:50.841Z,100724.25
2018-02-15T16:38:20.000Z,100725.95
2018-02-15T16:40:50.946Z,100723.36
2018-02-15T16:43:20.873Z,100719.05
2018-02-15T16:45:50.012Z,100715.80
2018-02-15T16:48:19.166Z,100718.44
2018-02-15T16:50:49.095Z,100724.83
2018-02-15T16:53:18.220Z,100715.84
2018-02-15T16:55:47.385Z,100718.00
2018-02-15T16:58:16.558Z,100724.41
2018-02-15T17:00:46.464Z,100727.51
2018-02-15T17:03:16.439Z,100726.58
2018-02-15T17:05:45.578Z,100736.89
2018-02-15T17:08:14.728Z,100745.50
2018-02-15T17:10:43.885Z,100751.70
2018-02-15T17:13:13.849Z,100758.38
2018-02-15T17:15:42.976Z,100757.02
2018-02-15T17:18:12.172Z,100758.69
2018-02-15T17:20:42.259Z,100754.58
2018-02-15T17:23:11.403Z,100756.91
2018-02-15T17:25:40.519Z,100757.68
2018-02-15T17:28:09.669Z,100763.85
2018-02-15T17:30:38.816Z,100773.47
2018-02-15T17:33:08.722Z,100768.81
2018-02-15T17:35:38.628Z,100776.96
2018-02-15T17:51:06.685Z,100787.66
2018-02-15T17:53:36.629Z,100787.50
2018-02-15T17:56:06.446Z,100783.97
2018-02-15T17:58:35.585Z,100792.08
2018-02-15T18:01:04.754Z,100793.13
2018-02-15T18:03:33.941Z,100798.97
2018-02-15T18:06:03.098Z,100787.53
2018-02-15T18:08:32.250Z,100790.52
2018-02-15T18:11:01.415Z,100792.84
2018-02-15T18:13:30.576Z,100796.75
2018-02-15T18:15:59.699Z,100801.80
2018-02-15T18:18:29.626Z,100789.71
2018-02-15T18:20:58.760Z,100785.10
2018-02-15T18:23:27.931Z,100786.58
2018-02-15T18:25:57.069Z,100778.12
2018-02-15T18:28:26.228Z,100774.47
2018-02-15T18:30:55.396Z,100785.29
2018-02-15T18:33:25.314Z,100792.08
2018-02-15T18:35:55.249Z,100795.64
2018-02-15T18:38:24.401Z,100799.56
2018-02-15T18:40:53.586Z,100799.76
2018-02-15T18:43:22.736Z,100802.47
2018-02-15T18:45:52.135Z,100806.27
2018-02-15T18:48:22.066Z,100801.00
2018-02-15T18:50:51.217Z,100802.59
2018-02-15T18:53:20.402Z,100807.91
2018-02-15T18:55:49.550Z,100807.67
2018-02-15T18:58:18.700Z,100798.44
2018-02-15T19:00:47.864Z,100804.56
2018-02-15T19:03:17.587Z,100810.77
2018-02-15T19:05:46.723Z,100806.23
2018-02-15T19:08:16.636Z,100808.05
2018-02-15T19:10:45.793Z,100808.48
2018-02-15T19:13:14.944Z,100800.98
2018-02-15T19:15:44.881Z,100807.85
2018-02-15T19:18:14.018Z,100801.92
2018-02-15T19:20:43.186Z,100800.59
2018-02-15T19:23:12.328Z,100804.36
2018-02-15T19:25:41.491Z,100810.72
2018-02-15T19:28:10.632Z,100807.59
2018-02-15T19:30:39.752Z,100811.13
2018-02-15T19:33:08.944Z,100811.52
2018-02-15T19:35:38.874Z,100813.97
2018-02-15T19:38:08.039Z,100812.67
2018-02-15T19:40:37.215Z,100811.83
2018-02-15T19:43:07.158Z,100812.09
2018-02-15T19:45:37.114Z,100811.73
2018-02-15T19:48:06.298Z,100803.34
2018-02-15T19:50:35.479Z,100810.66
2018-02-15T19:53:05.403Z,100799.80
2018-02-15T19:55:34.557Z,100801.55
2018-02-15T19:58:03.716Z,100807.67
2018-02-15T20:00:33.626Z,100806.86
2018-02-15T20:03:02.803Z,100806.08
2018-02-15T20:05:31.945Z,100802.09
2018-02-15T20:08:01.101Z,100811.51
2018-02-15T20:10:31.002Z,100811.55
2018-02-15T20:13:00.899Z,100805.39
2018-02-15T20:15:35.624Z,100813.11
2018-02-15T20:18:04.767Z,100802.67
2018-02-15T20:20:33.930Z,100808.73
2018-02-15T20:23:03.845Z,100808.11
2018-02-15T20:25:33.762Z,100806.80
2018-02-15T20:28:08.332Z,100809.94
2018-02-15T20:30:37.501Z,100811.13
2018-02-15T20:33:07.431Z,100813.42
2018-02-15T20:35:36.591Z,100817.89
2018-02-15T20:38:12.042Z,100833.48
2018-02-15T20:40:41.203Z,100835.11
2018-02-15T20:43:10.349Z,100832.48
2018-02-15T20:45:40.297Z,100846.64
2018-02-15T20:48:09.428Z,100851.02
2018-02-15T20:50:43.981Z,100844.34
2018-02-15T20:53:19.526Z,100848.81
2018-02-15T20:55:49.453Z,100853.96
2018-02-15T20:58:19.428Z,100862.53
2018-02-15T21:00:48.588Z,100864.23
2018-02-15T21:03:17.746Z,100865.41
2018-02-15T21:05:47.195Z,100859.78
2018-02-15T21:08:16.320Z,100857.45
2018-02-15T21:10:45.487Z,100865.95
2018-02-15T21:13:14.644Z,100863.66
2018-02-15T21:15:44.602Z,100869.36
2018-02-15T21:18:13.762Z,100876.23
2018-02-15T21:20:43.676Z,100884.68
2018-02-15T21:23:12.828Z,100884.06
2018-02-15T21:25:42.009Z,100891.91
2018-02-15T21:28:11.152Z,100895.81
2018-02-15T21:30:41.901Z,100891.88
2018-02-15T21:33:12.628Z,100884.19
2018-02-15T21:35:41.759Z,100887.22
2018-02-15T21:38:11.928Z,100890.22
2018-02-15T21:40:41.063Z,100887.08
2018-02-15T21:43:11.009Z,100901.95
2018-02-15T21:45:40.162Z,100893.30
2018-02-15T21:48:10.094Z,100893.48
2018-02-15T21:50:40.004Z,100900.83
2018-02-15T21:53:10.771Z,100899.51
2018-02-15T21:55:39.930Z,100902.84
2018-02-15T21:58:09.847Z,100909.80
2018-02-15T22:00:39.753Z,100922.61
2018-02-15T22:03:08.915Z,100927.27
2018-02-15T22:05:38.040Z,100925.28
2018-02-15T22:08:07.933Z,100926.82
2018-02-15T22:10:37.076Z,100926.82
2018-02-15T22:13:07.034Z,100930.62
2018-02-15T22:15:36.174Z,100929.16
2018-02-15T22:18:05.302Z,100943.75
2018-02-15T22:20:34.413Z,100943.59
2018-02-15T22:23:03.542Z,100946.73
2018-02-15T22:25:32.670Z,100947.57
2018-02-15T22:28:02.547Z,100946.52
2018-02-15T22:30:31.700Z,100941.86
2018-02-15T22:33:00.814Z,100938.25
2018-02-15T22:35:29.963Z,100951.55
2018-02-15T22:37:59.065Z,100968.56
2018-02-15T22:40:28.949Z,100968.05
2018-02-15T22:42:58.054Z,100971.58
2018-02-15T22:45:27.188Z,100979.63
2018-02-15T22:47:57.037Z,100987.94
2018-02-15T22:50:26.152Z,100994.20
2018-02-15T22:52:55.270Z,100992.05
2018-02-15T22:55:24.366Z,100995.73
2018-02-15T22:57:53.466Z,101000.77
2018-02-15T23:00:23.345Z,100999.15
2018-02-15T23:02:52.451Z,101002.61
2018-02-15T23:05:21.586Z,101003.34
2018-02-15T23:07:51.490Z,101003.20
2018-02-15T23:10:20.611Z,100992.23
2018-02-15T23:12:49.747Z,100998.88
2018-02-15T23:15:18.881Z,100994.45
2018-02-15T23:17:47.985Z,100989.98
2018-02-15T23:20:17.898Z,100986.48
2018-02-15T23:22:46.997Z,100988.26
2018-02-15T23:25:16.882Z,100988.39
2018-02-15T23:27:45.960Z,100988.98
2018-02-15T23:30:17.920Z,100990.25
2018-02-15T23:32:47.771Z,101004.33
2018-02-15T23:35:17.660Z,101008.03
2018-02-15T23:37:47.558Z,101011.77
2018-02-15T23:40:16.661Z,101010.47
2018-02-15T23:42:45.772Z,101017.52
2018-02-15T23:45:14.899Z,101018.11
2018-02-15T23:47:44.791Z,101016.45
2018-02-15T23:50:13.937Z,101019.25
2018-02-15T23:52:43.058Z,101030.89
2018-02-15T23:55:12.162Z,101039.88
2018-02-15T23:57:41.260Z,101039.62
